Columbia, SC (29212)

3:50 PM EST on March 01, 2017 (GMT -0500)
Quail Valley | | Change Station
Active Advisory: Lake Wind Advisory

Elev 289 ft 34.07 °N, 81.17 °W | Updated 5 minutes ago

Partly Cloudy
Partly Cloudy
82.8 °F
Feels Like 83 °F
N
3.8
Wind Variable Wind from SSE
Gusts 6.9 mph

Today
High -- | Low -- °F
--% Chance of Precip.
Yesterday
High -- | Low -- °F
Precip. -- in
Pressure 29.90 in
Visibility 10.0 miles
Clouds Scattered Clouds 5000 ft
Scattered Clouds 22000 ft
Heat Index 83 °F
Dew Point 58 °F
Humidity 43%
Rainfall 0.00 in
Snow Depth Not available.
6:53 AM 6:21 PM
Waxing Crescent, 13% visible
METAR KCAE 011956Z 23012G24KT 10SM SCT050 SCT220 28/14 A2991 RMK AO2 PK WND 20026/1928 SLP124 T02830144
Pressure 29.90 in
Visibility 10.0 miles
Clouds Scattered Clouds 5000 ft
Scattered Clouds 22000 ft
Heat Index 83 °F
Dew Point 58 °F
Humidity 43%
Rainfall 0.00 in
Snow Depth Not available.
6:53 AM 6:21 PM
Waxing Crescent, 13% visible
METAR KCAE 011956Z 23012G24KT 10SM SCT050 SCT220 28/14 A2991 RMK AO2 PK WND 20026/1928 SLP124 T02830144

Get Your Daily Forecast Email!

Thanks for signing up!

Be on the lookout for a verification email in your inbox.

You'll start receiving the daily forecast at 8 AM.

×

10-Day Weather Forecast

Almanac

Astronomy

Mar. 01, 2017 Rise Set
Actual Time
Civil Twilight
Nautical Twilight
Astronomical Twilight
Moon
Length of Visible Light
Length of Day
Tomorrow will be .
, % of the Moon is Illuminated

Today's Extremes

State Highs State Lows

Community

WunderPhotos

Upload Photos

1,962,540 photos uploaded!

WunderBlog® & News

Nearby

Air Quality

  Air Quality AQ Index Pollutant
Not available.

Snow Depth

Station Depth Elevation

Earthquake Activity

City Distance Mag. Time & Date
Minimum magnitude displayed is 2.5.

Coastal Water Temperatures

Place Temperature

Stations

Nearby Weather Stations

Station Location Temp. Windchill Dew Point Humidity Wind Precip. Elev Updated Type
                   

Watches & Warnings

Lake Wind Advisory
Issued: 10:44 AM EST Mar. 1, 2017 – National Weather Service

... Lake Wind Advisory remains in effect until 3 am EST Thursday...

* wind... southwest 20 to 30 knots through this afternoon... then
southwest to west 20 to 30 knots tonight.

* Impacts... strong wind and rough chop will create hazardous
conditions on area lakes.

Precautionary/preparedness actions...

A lake Wind Advisory indicates that winds will cause rough chop
on area lakes. Small boats will be especially prone to capsizing.